sensor_id;sensor_type;location;lat;lon;timestamp;P1;durP1;ratioP1;P2;durP2;ratioP2
22415;SDS011;12204;50.600;4.608;2022-11-15T00:00:43;8.13;;;3.35;;
22415;SDS011;12204;50.600;4.608;2022-11-15T00:06:05;8.07;;;3.47;;
22415;SDS011;12204;50.600;4.608;2022-11-15T00:11:28;8.45;;;3.40;;
22415;SDS011;12204;50.600;4.608;2022-11-15T00:16:51;7.32;;;3.10;;
22415;SDS011;12204;50.600;4.608;2022-11-15T00:22:13;10.13;;;3.53;;
22415;SDS011;12204;50.600;4.608;2022-11-15T00:27:36;7.57;;;3.58;;
22415;SDS011;12204;50.600;4.608;2022-11-15T00:33:01;8.05;;;3.22;;
22415;SDS011;12204;50.600;4.608;2022-11-15T00:38:24;7.55;;;3.25;;
22415;SDS011;12204;50.600;4.608;2022-11-15T00:43:47;10.25;;;3.10;;
22415;SDS011;12204;50.600;4.608;2022-11-15T00:49:09;8.45;;;3.05;;
22415;SDS011;12204;50.600;4.608;2022-11-15T00:54:32;8.27;;;3.35;;
22415;SDS011;12204;50.600;4.608;2022-11-15T00:59:55;8.40;;;3.50;;
22415;SDS011;12204;50.600;4.608;2022-11-15T01:05:17;7.55;;;3.28;;
22415;SDS011;12204;50.600;4.608;2022-11-15T01:10:40;8.15;;;3.58;;
22415;SDS011;12204;50.600;4.608;2022-11-15T01:16:07;6.53;;;3.05;;
22415;SDS011;12204;50.600;4.608;2022-11-15T01:21:32;8.43;;;3.13;;
22415;SDS011;12204;50.600;4.608;2022-11-15T01:26:55;8.25;;;2.97;;
22415;SDS011;12204;50.600;4.608;2022-11-15T01:32:18;6.35;;;2.90;;
22415;SDS011;12204;50.600;4.608;2022-11-15T01:37:40;10.57;;;3.20;;
22415;SDS011;12204;50.600;4.608;2022-11-15T01:48:44;7.05;;;2.92;;
22415;SDS011;12204;50.600;4.608;2022-11-15T01:54:07;9.32;;;3.22;;
22415;SDS011;12204;50.600;4.608;2022-11-15T01:59:39;7.60;;;3.00;;
22415;SDS011;12204;50.600;4.608;2022-11-15T02:05:06;7.30;;;3.20;;
22415;SDS011;12204;50.600;4.608;2022-11-15T02:10:29;6.53;;;2.90;;
22415;SDS011;12204;50.600;4.608;2022-11-15T02:15:55;7.85;;;2.78;;
22415;SDS011;12204;50.600;4.608;2022-11-15T02:21:36;7.25;;;2.75;;
22415;SDS011;12204;50.600;4.608;2022-11-15T02:34:19;6.32;;;2.75;;
22415;SDS011;12204;50.600;4.608;2022-11-15T02:39:54;7.75;;;2.88;;
22415;SDS011;12204;50.600;4.608;2022-11-15T02:45:28;7.35;;;3.10;;
22415;SDS011;12204;50.600;4.608;2022-11-15T02:50:58;5.90;;;2.80;;
22415;SDS011;12204;50.600;4.608;2022-11-15T02:56:22;7.07;;;2.97;;
22415;SDS011;12204;50.600;4.608;2022-11-15T03:01:47;8.32;;;2.83;;
22415;SDS011;12204;50.600;4.608;2022-11-15T03:07:28;5.75;;;2.80;;
22415;SDS011;12204;50.600;4.608;2022-11-15T03:12:57;6.30;;;2.60;;
22415;SDS011;12204;50.600;4.608;2022-11-15T03:18:28;7.55;;;2.85;;
22415;SDS011;12204;50.600;4.608;2022-11-15T03:23:56;6.43;;;2.70;;
22415;SDS011;12204;50.600;4.608;2022-11-15T03:29:24;7.75;;;2.67;;
22415;SDS011;12204;50.600;4.608;2022-11-15T03:34:53;6.22;;;2.70;;
22415;SDS011;12204;50.600;4.608;2022-11-15T03:40:24;7.45;;;2.60;;
22415;SDS011;12204;50.600;4.608;2022-11-15T03:45:54;6.18;;;2.60;;
22415;SDS011;12204;50.600;4.608;2022-11-15T03:51:22;5.63;;;2.45;;
22415;SDS011;12204;50.600;4.608;2022-11-15T03:56:46;7.18;;;2.75;;
22415;SDS011;12204;50.600;4.608;2022-11-15T04:02:08;6.80;;;2.42;;
22415;SDS011;12204;50.600;4.608;2022-11-15T04:07:31;5.13;;;2.40;;
22415;SDS011;12204;50.600;4.608;2022-11-15T04:12:54;5.88;;;2.60;;
22415;SDS011;12204;50.600;4.608;2022-11-15T04:18:16;5.85;;;2.50;;
22415;SDS011;12204;50.600;4.608;2022-11-15T04:23:38;7.35;;;2.33;;
22415;SDS011;12204;50.600;4.608;2022-11-15T04:29:22;5.35;;;2.40;;
22415;SDS011;12204;50.600;4.608;2022-11-15T04:34:56;11.52;;;2.50;;
22415;SDS011;12204;50.600;4.608;2022-11-15T04:40:18;7.32;;;2.45;;
22415;SDS011;12204;50.600;4.608;2022-11-15T04:45:42;5.15;;;2.20;;
22415;SDS011;12204;50.600;4.608;2022-11-15T04:51:04;8.73;;;2.60;;
22415;SDS011;12204;50.600;4.608;2022-11-15T04:56:26;5.35;;;2.30;;
22415;SDS011;12204;50.600;4.608;2022-11-15T05:01:49;9.10;;;2.40;;
22415;SDS011;12204;50.600;4.608;2022-11-15T05:07:12;4.78;;;2.10;;
22415;SDS011;12204;50.600;4.608;2022-11-15T05:12:34;6.00;;;2.50;;
22415;SDS011;12204;50.600;4.608;2022-11-15T05:17:59;8.15;;;2.55;;
22415;SDS011;12204;50.600;4.608;2022-11-15T05:23:21;5.80;;;2.15;;
22415;SDS011;12204;50.600;4.608;2022-11-15T05:28:43;5.25;;;2.00;;
22415;SDS011;12204;50.600;4.608;2022-11-15T05:34:07;5.63;;;2.47;;
22415;SDS011;12204;50.600;4.608;2022-11-15T05:39:29;5.82;;;2.35;;
22415;SDS011;12204;50.600;4.608;2022-11-15T05:44:52;4.38;;;2.00;;
22415;SDS011;12204;50.600;4.608;2022-11-15T05:50:16;5.47;;;2.20;;
22415;SDS011;12204;50.600;4.608;2022-11-15T05:55:39;5.65;;;2.50;;
22415;SDS011;12204;50.600;4.608;2022-11-15T06:01:03;5.38;;;2.35;;
22415;SDS011;12204;50.600;4.608;2022-11-15T06:06:28;5.30;;;2.20;;
22415;SDS011;12204;50.600;4.608;2022-11-15T06:11:51;5.85;;;2.10;;
22415;SDS011;12204;50.600;4.608;2022-11-15T06:17:13;5.10;;;2.38;;
22415;SDS011;12204;50.600;4.608;2022-11-15T06:22:37;5.50;;;2.17;;
22415;SDS011;12204;50.600;4.608;2022-11-15T06:27:59;5.43;;;2.17;;
22415;SDS011;12204;50.600;4.608;2022-11-15T06:33:21;5.75;;;2.13;;
22415;SDS011;12204;50.600;4.608;2022-11-15T06:38:45;6.70;;;2.20;;
22415;SDS011;12204;50.600;4.608;2022-11-15T06:44:07;5.82;;;2.35;;
22415;SDS011;12204;50.600;4.608;2022-11-15T06:49:30;4.75;;;2.20;;
22415;SDS011;12204;50.600;4.608;2022-11-15T06:54:53;5.47;;;2.03;;
22415;SDS011;12204;50.600;4.608;2022-11-15T07:00:16;5.03;;;2.33;;
22415;SDS011;12204;50.600;4.608;2022-11-15T07:05:40;4.40;;;2.08;;
22415;SDS011;12204;50.600;4.608;2022-11-15T07:11:05;4.80;;;2.20;;
22415;SDS011;12204;50.600;4.608;2022-11-15T07:16:29;4.95;;;2.00;;
22415;SDS011;12204;50.600;4.608;2022-11-15T07:21:52;4.70;;;2.20;;
22415;SDS011;12204;50.600;4.608;2022-11-15T07:27:15;5.18;;;2.20;;
22415;SDS011;12204;50.600;4.608;2022-11-15T07:32:37;4.18;;;1.88;;
22415;SDS011;12204;50.600;4.608;2022-11-15T07:37:59;4.97;;;2.20;;
22415;SDS011;12204;50.600;4.608;2022-11-15T07:43:24;8.48;;;2.22;;
22415;SDS011;12204;50.600;4.608;2022-11-15T07:48:48;7.97;;;1.88;;
22415;SDS011;12204;50.600;4.608;2022-11-15T07:54:10;8.27;;;2.13;;
22415;SDS011;12204;50.600;4.608;2022-11-15T07:59:34;7.18;;;1.75;;
22415;SDS011;12204;50.600;4.608;2022-11-15T08:04:56;8.10;;;1.73;;
22415;SDS011;12204;50.600;4.608;2022-11-15T08:10:18;6.30;;;2.05;;
22415;SDS011;12204;50.600;4.608;2022-11-15T08:15:42;13.35;;;3.38;;
22415;SDS011;12204;50.600;4.608;2022-11-15T08:21:04;14.95;;;4.40;;
22415;SDS011;12204;50.600;4.608;2022-11-15T08:26:27;18.65;;;5.28;;
22415;SDS011;12204;50.600;4.608;2022-11-15T08:31:51;18.52;;;5.35;;
22415;SDS011;12204;50.600;4.608;2022-11-15T08:37:17;25.45;;;7.75;;
22415;SDS011;12204;50.600;4.608;2022-11-15T08:42:40;43.63;;;13.25;;
22415;SDS011;12204;50.600;4.608;2022-11-15T08:48:04;43.70;;;12.80;;
22415;SDS011;12204;50.600;4.608;2022-11-15T08:53:26;41.25;;;12.30;;
22415;SDS011;12204;50.600;4.608;2022-11-15T08:58:48;40.97;;;11.70;;
22415;SDS011;12204;50.600;4.608;2022-11-15T09:04:12;38.22;;;12.20;;
22415;SDS011;12204;50.600;4.608;2022-11-15T09:09:34;35.15;;;11.23;;
22415;SDS011;12204;50.600;4.608;2022-11-15T09:14:56;34.22;;;11.35;;
22415;SDS011;12204;50.600;4.608;2022-11-15T09:20:20;32.80;;;11.00;;
22415;SDS011;12204;50.600;4.608;2022-11-15T09:25:42;34.05;;;10.35;;
22415;SDS011;12204;50.600;4.608;2022-11-15T09:31:05;28.88;;;10.02;;
22415;SDS011;12204;50.600;4.608;2022-11-15T09:36:28;31.65;;;9.48;;
22415;SDS011;12204;50.600;4.608;2022-11-15T09:41:55;30.63;;;9.82;;
22415;SDS011;12204;50.600;4.608;2022-11-15T09:47:43;29.67;;;9.38;;
22415;SDS011;12204;50.600;4.608;2022-11-15T09:53:26;23.85;;;8.65;;
22415;SDS011;12204;50.600;4.608;2022-11-15T09:59:00;24.67;;;8.60;;
22415;SDS011;12204;50.600;4.608;2022-11-15T10:04:25;26.35;;;8.85;;
22415;SDS011;12204;50.600;4.608;2022-11-15T10:09:32;23.38;;;8.38;;
22415;SDS011;12204;50.600;4.608;2022-11-15T10:14:45;21.30;;;7.65;;
22415;SDS011;12204;50.600;4.608;2022-11-15T10:19:58;21.85;;;8.00;;
22415;SDS011;12204;50.600;4.608;2022-11-15T10:25:22;25.48;;;8.23;;
22415;SDS011;12204;50.600;4.608;2022-11-15T10:30:33;19.38;;;6.82;;
22415;SDS011;12204;50.600;4.608;2022-11-15T10:35:40;17.35;;;6.65;;
22415;SDS011;12204;50.600;4.608;2022-11-15T10:40:45;16.77;;;5.93;;
22415;SDS011;12204;50.600;4.608;2022-11-15T10:45:49;17.35;;;5.53;;
22415;SDS011;12204;50.600;4.608;2022-11-15T10:50:54;18.88;;;5.70;;
22415;SDS011;12204;50.600;4.608;2022-11-15T10:56:01;18.30;;;4.78;;
22415;SDS011;12204;50.600;4.608;2022-11-15T11:01:10;26.52;;;6.20;;
22415;SDS011;12204;50.600;4.608;2022-11-15T11:06:19;18.35;;;5.47;;
22415;SDS011;12204;50.600;4.608;2022-11-15T11:11:24;18.00;;;4.72;;
22415;SDS011;12204;50.600;4.608;2022-11-15T11:16:34;18.20;;;5.00;;
22415;SDS011;12204;50.600;4.608;2022-11-15T11:21:49;17.65;;;4.95;;
22415;SDS011;12204;50.600;4.608;2022-11-15T11:27:12;17.15;;;4.60;;
22415;SDS011;12204;50.600;4.608;2022-11-15T11:38:04;21.48;;;4.43;;
22415;SDS011;12204;50.600;4.608;2022-11-15T11:43:25;18.10;;;4.82;;
22415;SDS011;12204;50.600;4.608;2022-11-15T11:48:55;19.70;;;4.80;;
22415;SDS011;12204;50.600;4.608;2022-11-15T11:54:11;13.68;;;4.50;;
22415;SDS011;12204;50.600;4.608;2022-11-15T11:59:25;16.58;;;4.70;;
22415;SDS011;12204;50.600;4.608;2022-11-15T12:04:39;14.18;;;4.47;;
22415;SDS011;12204;50.600;4.608;2022-11-15T12:09:52;14.55;;;4.38;;
22415;SDS011;12204;50.600;4.608;2022-11-15T12:15:09;13.48;;;4.20;;
22415;SDS011;12204;50.600;4.608;2022-11-15T12:20:20;16.50;;;4.55;;
22415;SDS011;12204;50.600;4.608;2022-11-15T12:25:29;16.38;;;4.40;;
22415;SDS011;12204;50.600;4.608;2022-11-15T12:30:53;13.20;;;4.22;;
22415;SDS011;12204;50.600;4.608;2022-11-15T12:36:05;14.70;;;4.30;;
22415;SDS011;12204;50.600;4.608;2022-11-15T12:41:14;15.50;;;4.13;;
22415;SDS011;12204;50.600;4.608;2022-11-15T12:46:23;11.15;;;3.70;;
22415;SDS011;12204;50.600;4.608;2022-11-15T12:52:04;12.15;;;4.00;;
22415;SDS011;12204;50.600;4.608;2022-11-15T12:57:22;11.50;;;3.70;;
22415;SDS011;12204;50.600;4.608;2022-11-15T13:02:43;10.65;;;3.90;;
22415;SDS011;12204;50.600;4.608;2022-11-15T13:07:55;12.23;;;4.07;;
22415;SDS011;12204;50.600;4.608;2022-11-15T13:13:01;11.98;;;3.72;;
22415;SDS011;12204;50.600;4.608;2022-11-15T13:18:27;12.50;;;3.63;;
22415;SDS011;12204;50.600;4.608;2022-11-15T13:23:39;13.25;;;3.83;;
22415;SDS011;12204;50.600;4.608;2022-11-15T13:28:44;11.82;;;3.45;;
22415;SDS011;12204;50.600;4.608;2022-11-15T13:33:52;10.37;;;3.30;;
22415;SDS011;12204;50.600;4.608;2022-11-15T13:39:00;13.23;;;3.70;;
22415;SDS011;12204;50.600;4.608;2022-11-15T13:44:18;11.30;;;3.63;;
22415;SDS011;12204;50.600;4.608;2022-11-15T13:49:29;8.32;;;3.05;;
22415;SDS011;12204;50.600;4.608;2022-11-15T13:54:35;10.48;;;3.35;;
22415;SDS011;12204;50.600;4.608;2022-11-15T13:59:46;11.95;;;3.25;;
22415;SDS011;12204;50.600;4.608;2022-11-15T14:04:55;9.93;;;3.17;;
22415;SDS011;12204;50.600;4.608;2022-11-15T14:10:17;8.93;;;3.25;;
22415;SDS011;12204;50.600;4.608;2022-11-15T14:15:31;11.45;;;3.30;;
22415;SDS011;12204;50.600;4.608;2022-11-15T14:20:39;10.47;;;3.77;;
22415;SDS011;12204;50.600;4.608;2022-11-15T14:25:51;9.50;;;3.20;;
22415;SDS011;12204;50.600;4.608;2022-11-15T14:30:57;10.77;;;3.15;;
22415;SDS011;12204;50.600;4.608;2022-11-15T14:36:04;8.85;;;3.22;;
22415;SDS011;12204;50.600;4.608;2022-11-15T14:41:17;8.55;;;2.97;;
22415;SDS011;12204;50.600;4.608;2022-11-15T14:46:23;11.82;;;3.08;;
22415;SDS011;12204;50.600;4.608;2022-11-15T14:51:28;9.45;;;3.00;;
22415;SDS011;12204;50.600;4.608;2022-11-15T14:56:34;10.13;;;3.00;;
22415;SDS011;12204;50.600;4.608;2022-11-15T15:01:37;9.13;;;2.80;;
22415;SDS011;12204;50.600;4.608;2022-11-15T15:06:43;8.20;;;2.95;;
22415;SDS011;12204;50.600;4.608;2022-11-15T15:11:47;8.43;;;3.15;;
22415;SDS011;12204;50.600;4.608;2022-11-15T15:16:50;8.70;;;2.75;;
22415;SDS011;12204;50.600;4.608;2022-11-15T15:21:55;7.95;;;2.63;;
22415;SDS011;12204;50.600;4.608;2022-11-15T15:26:59;7.53;;;2.65;;
22415;SDS011;12204;50.600;4.608;2022-11-15T15:32:02;7.82;;;2.67;;
22415;SDS011;12204;50.600;4.608;2022-11-15T15:37:09;8.55;;;2.75;;
22415;SDS011;12204;50.600;4.608;2022-11-15T15:42:26;7.97;;;2.50;;
22415;SDS011;12204;50.600;4.608;2022-11-15T15:47:30;5.88;;;2.42;;
22415;SDS011;12204;50.600;4.608;2022-11-15T15:52:35;7.47;;;2.70;;
22415;SDS011;12204;50.600;4.608;2022-11-15T15:57:39;6.72;;;2.50;;
22415;SDS011;12204;50.600;4.608;2022-11-15T16:02:42;7.13;;;2.50;;
22415;SDS011;12204;50.600;4.608;2022-11-15T16:07:48;5.55;;;2.22;;
22415;SDS011;12204;50.600;4.608;2022-11-15T16:12:51;7.78;;;2.50;;
22415;SDS011;12204;50.600;4.608;2022-11-15T16:17:57;7.40;;;2.45;;
22415;SDS011;12204;50.600;4.608;2022-11-15T16:23:04;6.65;;;2.53;;
22415;SDS011;12204;50.600;4.608;2022-11-15T16:28:18;8.00;;;2.40;;
22415;SDS011;12204;50.600;4.608;2022-11-15T16:33:24;6.05;;;2.00;;
22415;SDS011;12204;50.600;4.608;2022-11-15T16:38:29;6.05;;;2.22;;
22415;SDS011;12204;50.600;4.608;2022-11-15T16:43:33;7.05;;;2.42;;
22415;SDS011;12204;50.600;4.608;2022-11-15T16:48:37;5.43;;;2.00;;
22415;SDS011;12204;50.600;4.608;2022-11-15T16:53:42;6.45;;;2.33;;
22415;SDS011;12204;50.600;4.608;2022-11-15T16:58:46;6.78;;;2.20;;
22415;SDS011;12204;50.600;4.608;2022-11-15T17:03:50;7.00;;;2.30;;
22415;SDS011;12204;50.600;4.608;2022-11-15T17:08:55;6.53;;;2.13;;
22415;SDS011;12204;50.600;4.608;2022-11-15T17:13:59;5.47;;;2.10;;
22415;SDS011;12204;50.600;4.608;2022-11-15T17:19:03;6.28;;;2.30;;
22415;SDS011;12204;50.600;4.608;2022-11-15T17:24:08;5.18;;;1.90;;
22415;SDS011;12204;50.600;4.608;2022-11-15T17:29:13;5.20;;;1.73;;
22415;SDS011;12204;50.600;4.608;2022-11-15T17:34:16;5.10;;;1.90;;
22415;SDS011;12204;50.600;4.608;2022-11-15T17:39:21;6.18;;;1.83;;
22415;SDS011;12204;50.600;4.608;2022-11-15T17:44:25;4.40;;;1.90;;
22415;SDS011;12204;50.600;4.608;2022-11-15T17:49:28;6.00;;;1.90;;
22415;SDS011;12204;50.600;4.608;2022-11-15T17:54:34;4.50;;;1.90;;
22415;SDS011;12204;50.600;4.608;2022-11-15T17:59:37;4.50;;;1.77;;
22415;SDS011;12204;50.600;4.608;2022-11-15T18:04:41;5.28;;;2.00;;
22415;SDS011;12204;50.600;4.608;2022-11-15T18:09:47;5.10;;;1.88;;
22415;SDS011;12204;50.600;4.608;2022-11-15T18:14:51;6.13;;;1.70;;
22415;SDS011;12204;50.600;4.608;2022-11-15T18:19:54;4.90;;;1.88;;
22415;SDS011;12204;50.600;4.608;2022-11-15T18:24:59;4.75;;;1.63;;
22415;SDS011;12204;50.600;4.608;2022-11-15T18:30:03;5.97;;;1.90;;
22415;SDS011;12204;50.600;4.608;2022-11-15T18:35:09;5.13;;;1.80;;
22415;SDS011;12204;50.600;4.608;2022-11-15T18:40:14;4.53;;;1.65;;
22415;SDS011;12204;50.600;4.608;2022-11-15T18:45:18;4.93;;;1.85;;
22415;SDS011;12204;50.600;4.608;2022-11-15T18:50:24;4.18;;;1.75;;
22415;SDS011;12204;50.600;4.608;2022-11-15T18:55:29;6.18;;;1.90;;
22415;SDS011;12204;50.600;4.608;2022-11-15T19:00:33;4.10;;;1.58;;
22415;SDS011;12204;50.600;4.608;2022-11-15T19:05:37;4.45;;;1.60;;
22415;SDS011;12204;50.600;4.608;2022-11-15T19:10:42;4.53;;;1.67;;
22415;SDS011;12204;50.600;4.608;2022-11-15T19:15:45;4.60;;;1.50;;
22415;SDS011;12204;50.600;4.608;2022-11-15T19:20:49;5.03;;;1.67;;
22415;SDS011;12204;50.600;4.608;2022-11-15T19:25:54;4.00;;;1.60;;
22415;SDS011;12204;50.600;4.608;2022-11-15T19:31:02;4.10;;;1.40;;
22415;SDS011;12204;50.600;4.608;2022-11-15T19:36:09;3.85;;;1.45;;
22415;SDS011;12204;50.600;4.608;2022-11-15T19:41:18;4.43;;;1.60;;
22415;SDS011;12204;50.600;4.608;2022-11-15T19:46:24;4.10;;;1.40;;
22415;SDS011;12204;50.600;4.608;2022-11-15T19:51:28;4.15;;;1.40;;
22415;SDS011;12204;50.600;4.608;2022-11-15T19:56:34;4.13;;;1.30;;
22415;SDS011;12204;50.600;4.608;2022-11-15T20:01:40;4.00;;;1.48;;
22415;SDS011;12204;50.600;4.608;2022-11-15T20:06:43;4.32;;;1.30;;
22415;SDS011;12204;50.600;4.608;2022-11-15T20:11:48;3.63;;;1.30;;
22415;SDS011;12204;50.600;4.608;2022-11-15T20:16:52;4.50;;;1.30;;
22415;SDS011;12204;50.600;4.608;2022-11-15T20:21:56;4.95;;;1.40;;
22415;SDS011;12204;50.600;4.608;2022-11-15T20:27:01;3.80;;;1.30;;
22415;SDS011;12204;50.600;4.608;2022-11-15T20:32:04;3.17;;;1.30;;
22415;SDS011;12204;50.600;4.608;2022-11-15T20:37:08;2.97;;;1.17;;
22415;SDS011;12204;50.600;4.608;2022-11-15T20:42:13;4.10;;;1.35;;
22415;SDS011;12204;50.600;4.608;2022-11-15T20:47:17;3.70;;;1.42;;
22415;SDS011;12204;50.600;4.608;2022-11-15T20:52:20;3.33;;;1.13;;
22415;SDS011;12204;50.600;4.608;2022-11-15T20:57:25;2.53;;;1.00;;
22415;SDS011;12204;50.600;4.608;2022-11-15T21:02:29;2.67;;;1.20;;
22415;SDS011;12204;50.600;4.608;2022-11-15T21:07:33;3.35;;;1.20;;
22415;SDS011;12204;50.600;4.608;2022-11-15T21:12:38;2.75;;;1.13;;
22415;SDS011;12204;50.600;4.608;2022-11-15T21:17:42;6.05;;;1.30;;
22415;SDS011;12204;50.600;4.608;2022-11-15T21:22:45;4.68;;;1.10;;
22415;SDS011;12204;50.600;4.608;2022-11-15T21:27:51;5.55;;;1.27;;
22415;SDS011;12204;50.600;4.608;2022-11-15T21:32:54;3.97;;;1.35;;
22415;SDS011;12204;50.600;4.608;2022-11-15T21:37:58;4.68;;;1.30;;
22415;SDS011;12204;50.600;4.608;2022-11-15T21:43:03;2.75;;;1.20;;
22415;SDS011;12204;50.600;4.608;2022-11-15T21:48:07;3.25;;;1.15;;
22415;SDS011;12204;50.600;4.608;2022-11-15T21:53:11;4.43;;;1.23;;
22415;SDS011;12204;50.600;4.608;2022-11-15T21:58:16;4.00;;;1.20;;
22415;SDS011;12204;50.600;4.608;2022-11-15T22:03:20;3.35;;;1.25;;
22415;SDS011;12204;50.600;4.608;2022-11-15T22:08:24;3.60;;;1.17;;
22415;SDS011;12204;50.600;4.608;2022-11-15T22:13:29;3.35;;;1.27;;
22415;SDS011;12204;50.600;4.608;2022-11-15T22:18:33;3.20;;;1.13;;
22415;SDS011;12204;50.600;4.608;2022-11-15T22:23:37;8.60;;;1.67;;
22415;SDS011;12204;50.600;4.608;2022-11-15T22:28:43;3.65;;;1.30;;
22415;SDS011;12204;50.600;4.608;2022-11-15T22:33:47;6.82;;;1.52;;
22415;SDS011;12204;50.600;4.608;2022-11-15T22:38:50;4.35;;;1.40;;
22415;SDS011;12204;50.600;4.608;2022-11-15T22:43:55;4.68;;;1.45;;
22415;SDS011;12204;50.600;4.608;2022-11-15T22:48:59;4.50;;;1.30;;
22415;SDS011;12204;50.600;4.608;2022-11-15T22:54:04;5.65;;;1.50;;
22415;SDS011;12204;50.600;4.608;2022-11-15T22:59:10;5.15;;;1.50;;
22415;SDS011;12204;50.600;4.608;2022-11-15T23:04:13;6.20;;;1.40;;
22415;SDS011;12204;50.600;4.608;2022-11-15T23:09:17;6.50;;;1.92;;
22415;SDS011;12204;50.600;4.608;2022-11-15T23:14:24;9.15;;;1.60;;
22415;SDS011;12204;50.600;4.608;2022-11-15T23:19:28;6.38;;;1.73;;
22415;SDS011;12204;50.600;4.608;2022-11-15T23:24:31;7.75;;;1.80;;
22415;SDS011;12204;50.600;4.608;2022-11-15T23:29:37;10.18;;;1.77;;
22415;SDS011;12204;50.600;4.608;2022-11-15T23:34:54;6.88;;;1.60;;
22415;SDS011;12204;50.600;4.608;2022-11-15T23:39:58;4.97;;;1.55;;
22415;SDS011;12204;50.600;4.608;2022-11-15T23:45:03;6.90;;;1.67;;
22415;SDS011;12204;50.600;4.608;2022-11-15T23:50:08;5.10;;;1.75;;
22415;SDS011;12204;50.600;4.608;2022-11-15T23:55:12;5.80;;;1.67;;
